createdAt,value
2022-08-30T08:58:13.195Z,100820.03
2022-08-30T09:01:18.037Z,100819.34
2022-08-30T09:04:23.464Z,100822.91
2022-08-30T09:07:43.430Z,100813.44
2022-08-30T09:11:06.610Z,100766.66
2022-08-30T09:14:13.969Z,100822.69
2022-08-30T09:17:17.630Z,100775.53
2022-08-30T09:20:35.135Z,100810.28
2022-08-30T09:23:37.846Z,100804.75
2022-08-30T09:26:40.728Z,100792.00
2022-08-30T09:29:59.612Z,100804.47
2022-08-30T09:33:18.995Z,100761.28
2022-08-30T09:36:50.791Z,100785.56
2022-08-30T09:39:54.897Z,100801.97
2022-08-30T09:43:10.191Z,100736.47
2022-08-30T09:46:16.461Z,100789.19
2022-08-30T09:49:40.779Z,100781.72
2022-08-30T09:53:11.771Z,100782.47
2022-08-30T09:56:32.316Z,100787.31
2022-08-30T09:59:50.558Z,100773.19
2022-08-30T10:03:11.567Z,100765.81
2022-08-30T10:06:33.785Z,100758.59
2022-08-30T10:09:54.945Z,100754.28
2022-08-30T10:13:20.920Z,100751.31
2022-08-30T10:16:32.371Z,100756.09
2022-08-30T10:19:44.413Z,100730.62
2022-08-30T10:23:00.680Z,100748.22
2022-08-30T10:26:35.618Z,100749.84
2022-08-30T10:30:06.950Z,100755.69
2022-08-30T10:33:23.191Z,100691.69
2022-08-30T10:36:33.642Z,100739.13
2022-08-30T10:39:40.931Z,100739.41
2022-08-30T10:42:44.108Z,100734.56
2022-08-30T10:45:47.320Z,100729.09
2022-08-30T10:48:49.664Z,100728.94
2022-08-30T10:52:03.707Z,100716.13
2022-08-30T10:55:29.038Z,100709.41
2022-08-30T10:58:31.900Z,100717.50
2022-08-30T11:01:47.069Z,100715.53
2022-08-30T11:04:53.067Z,100709.41
2022-08-30T11:08:22.009Z,100714.47
2022-08-30T11:11:34.688Z,100704.94
2022-08-30T11:14:46.087Z,100691.72
2022-08-30T11:18:01.307Z,100693.19
2022-08-30T11:21:24.065Z,100697.31
2022-08-30T11:24:27.142Z,100694.16
2022-08-30T11:27:48.860Z,100680.06
2022-08-30T11:30:54.203Z,100675.25
2022-08-30T11:34:00.964Z,100672.81
2022-08-30T11:37:04.083Z,100671.00
2022-08-30T11:40:22.771Z,100664.59
2022-08-30T11:43:34.630Z,100660.56
2022-08-30T11:46:40.603Z,100656.69
2022-08-30T11:49:55.397Z,100650.13
2022-08-30T11:53:18.825Z,100652.69
2022-08-30T11:56:36.005Z,100655.72
2022-08-30T12:00:02.051Z,100648.66
2022-08-30T12:03:16.275Z,100648.84
2022-08-30T12:06:38.952Z,100648.00
2022-08-30T12:09:43.376Z,100643.00
2022-08-30T12:12:47.688Z,100637.50
2022-08-30T12:15:57.795Z,100649.00
2022-08-30T12:19:18.198Z,100638.41
2022-08-30T12:22:25.008Z,100621.62
2022-08-30T12:25:33.299Z,100624.47
2022-08-30T12:28:35.673Z,100623.31
2022-08-30T12:31:45.472Z,100605.38
2022-08-30T12:34:55.427Z,100610.66
2022-08-30T12:38:06.577Z,100609.94
2022-08-30T12:41:08.986Z,100604.31
2022-08-30T12:44:17.009Z,100597.50
2022-08-30T12:47:26.800Z,100602.47
2022-08-30T12:50:35.964Z,100591.25
2022-08-30T12:53:46.318Z,100566.78
2022-08-30T12:56:50.224Z,100567.16
2022-08-30T12:59:59.288Z,100584.22
2022-08-30T13:03:24.704Z,100580.03
2022-08-30T13:07:00.342Z,100563.38
2022-08-30T13:10:06.606Z,100572.84
2022-08-30T13:13:08.918Z,100571.09
2022-08-30T13:16:11.655Z,100568.41
2022-08-30T13:19:37.871Z,100574.94
2022-08-30T13:22:42.128Z,100563.16
2022-08-30T13:25:44.580Z,100565.03
2022-08-30T13:29:00.085Z,100565.81
2022-08-30T13:32:05.716Z,100562.84
2022-08-30T13:35:09.012Z,100548.38
2022-08-30T13:38:11.339Z,100545.09
2022-08-30T13:41:13.917Z,100550.62
2022-08-30T13:44:16.452Z,100552.56
2022-08-30T13:47:35.267Z,100546.38
2022-08-30T13:50:39.104Z,100528.87
2022-08-30T13:53:57.579Z,100533.09
2022-08-30T13:57:00.165Z,100532.72
2022-08-30T14:00:09.711Z,100535.13
2022-08-30T14:03:14.990Z,100531.50
2022-08-30T14:06:32.843Z,100469.44
2022-08-30T14:09:36.992Z,100527.81
2022-08-30T14:13:06.989Z,100523.88
2022-08-30T14:19:29.532Z,100477.44
2022-08-30T14:22:31.903Z,100515.75
2022-08-30T14:25:34.843Z,100480.34
2022-08-30T14:28:37.263Z,100509.59
2022-08-30T14:31:41.098Z,100502.03
2022-08-30T14:34:43.584Z,100512.19
2022-08-30T14:37:48.452Z,100505.63
2022-08-30T14:40:51.070Z,100506.16
2022-08-30T14:43:53.750Z,100443.94
2022-08-30T14:46:56.300Z,100498.97
2022-08-30T14:50:00.942Z,100500.72
2022-08-30T14:53:03.411Z,100501.25
2022-08-30T14:56:10.391Z,100446.59
2022-08-30T14:59:13.262Z,100470.94
2022-08-30T15:02:16.042Z,100503.91
2022-08-30T15:05:18.546Z,100452.12
2022-08-30T15:08:22.931Z,100463.00
2022-08-30T15:11:25.844Z,100494.25
2022-08-30T15:14:28.863Z,100487.25
2022-08-30T15:17:31.213Z,100446.34
2022-08-30T15:20:33.858Z,100473.09
2022-08-30T15:23:36.650Z,100447.34
2022-08-30T15:26:41.773Z,100475.06
2022-08-30T15:29:44.147Z,100478.66
2022-08-30T15:32:47.364Z,100482.75
2022-08-30T15:35:52.046Z,100477.37
2022-08-30T15:38:55.762Z,100473.66
2022-08-30T15:42:01.057Z,100470.94
2022-08-30T15:45:04.564Z,100468.88
2022-08-30T15:48:08.702Z,100477.28
2022-08-30T15:51:11.692Z,100479.56
2022-08-30T15:54:16.840Z,100472.69
2022-08-30T15:57:19.582Z,100482.09
2022-08-30T16:00:22.107Z,100474.28
2022-08-30T16:03:26.014Z,100477.06
2022-08-30T16:06:30.282Z,100458.59
2022-08-30T16:09:34.183Z,100472.91
2022-08-30T16:12:36.545Z,100470.53
2022-08-30T16:15:39.956Z,100478.84
2022-08-30T16:18:42.409Z,100467.28
2022-08-30T16:21:45.233Z,100460.50
2022-08-30T16:24:48.997Z,100460.03
2022-08-30T16:27:53.325Z,100460.97
2022-08-30T16:30:58.754Z,100457.00
2022-08-30T16:34:03.693Z,100456.53
2022-08-30T16:37:06.735Z,100456.44
2022-08-30T16:40:11.216Z,100445.09
2022-08-30T16:43:15.614Z,100450.84
2022-08-30T16:46:23.319Z,100462.06
2022-08-30T16:49:27.896Z,100461.81
2022-08-30T16:52:33.928Z,100469.81
2022-08-30T16:55:40.096Z,100453.38
2022-08-30T16:58:45.881Z,100466.97
2022-08-30T17:01:48.888Z,100465.81
2022-08-30T17:04:53.181Z,100454.63
2022-08-30T17:07:58.528Z,100474.16
2022-08-30T17:11:03.362Z,100478.31
2022-08-30T17:14:16.278Z,100483.09
2022-08-30T17:17:28.197Z,100483.69
2022-08-30T17:20:33.354Z,100474.91
2022-08-30T17:23:36.116Z,100479.03
2022-08-30T17:26:40.124Z,100483.94
2022-08-30T17:29:42.810Z,100488.03
2022-08-30T17:32:47.227Z,100493.84
2022-08-30T17:35:54.219Z,100488.37
2022-08-30T17:38:58.303Z,100498.59
2022-08-30T17:42:03.744Z,100479.62
2022-08-30T17:45:07.383Z,100507.91
2022-08-30T17:48:10.506Z,100506.44
2022-08-30T17:51:13.014Z,100508.28
2022-08-30T17:54:15.826Z,100521.19
2022-08-30T17:57:18.148Z,100526.72
2022-08-30T18:00:21.387Z,100529.91
2022-08-30T18:03:24.047Z,100541.66
2022-08-30T18:06:26.476Z,100530.78
2022-08-30T18:09:33.665Z,100545.22
2022-08-30T18:12:36.414Z,100540.41
2022-08-30T18:15:39.019Z,100547.12
2022-08-30T18:18:46.605Z,100556.66
2022-08-30T18:21:50.106Z,100541.91
2022-08-30T18:24:52.569Z,100559.00
2022-08-30T18:27:58.210Z,100557.97
2022-08-30T18:31:17.721Z,100560.81
2022-08-30T18:34:20.654Z,100500.84
2022-08-30T18:37:25.257Z,100528.34
2022-08-30T18:40:27.988Z,100541.31
2022-08-30T18:43:31.128Z,100569.03
2022-08-30T18:46:36.188Z,100572.63
2022-08-30T18:49:38.819Z,100528.22
2022-08-30T18:52:41.542Z,100572.87
2022-08-30T18:55:48.433Z,100545.72
2022-08-30T18:58:51.304Z,100583.63
2022-08-30T19:01:53.915Z,100569.69
2022-08-30T19:04:56.667Z,100528.59
2022-08-30T19:07:59.063Z,100574.91
2022-08-30T19:11:04.767Z,100569.44
2022-08-30T19:14:11.800Z,100554.63
2022-08-30T19:17:18.730Z,100577.13
2022-08-30T19:20:21.962Z,100574.38
2022-08-30T19:23:27.135Z,100570.56
2022-08-30T19:26:38.427Z,100578.88
2022-08-30T19:29:44.709Z,100576.72
2022-08-30T19:32:47.833Z,100575.09
2022-08-30T19:35:51.629Z,100519.22
2022-08-30T19:38:55.372Z,100588.38
2022-08-30T19:42:05.763Z,100539.84
2022-08-30T19:45:08.958Z,100586.50
2022-08-30T19:48:11.769Z,100552.75
2022-08-30T19:51:14.615Z,100552.75
2022-08-30T19:54:17.429Z,100580.19
2022-08-30T19:57:23.390Z,100532.44
2022-08-30T20:00:27.247Z,100517.09
2022-08-30T20:03:36.580Z,100552.19
2022-08-30T20:06:44.881Z,100525.88
2022-08-30T20:09:51.132Z,100591.19
2022-08-30T20:12:53.612Z,100585.97
2022-08-30T20:15:57.062Z,100589.56
2022-08-30T20:18:59.553Z,100584.62
2022-08-30T20:22:07.181Z,100579.94
2022-08-30T20:25:11.924Z,100582.41
2022-08-30T20:28:21.456Z,100526.75
2022-08-30T20:31:23.979Z,100580.78
2022-08-30T20:34:31.230Z,100535.81
2022-08-30T20:37:34.691Z,100537.44
2022-08-30T20:40:40.926Z,100507.81
2022-08-30T20:43:45.467Z,100561.06
2022-08-30T20:46:50.849Z,100511.69
2022-08-30T20:49:53.333Z,100563.78
2022-08-30T20:52:56.020Z,100534.72
2022-08-30T20:55:59.630Z,100548.44
2022-08-30T20:59:05.385Z,100564.38
2022-08-30T21:02:08.941Z,100569.88
2022-08-30T21:05:16.718Z,100523.19
2022-08-30T21:08:20.241Z,100528.09
2022-08-30T21:11:23.353Z,100573.66
2022-08-30T21:14:25.782Z,100570.34
2022-08-30T21:17:30.242Z,100536.25
2022-08-30T21:20:32.912Z,100575.50
2022-08-30T21:23:35.741Z,100534.09
2022-08-30T21:26:40.615Z,100534.91
2022-08-30T21:29:45.540Z,100580.78
2022-08-30T21:32:48.052Z,100544.53
2022-08-30T21:36:09.052Z,100569.78
2022-08-30T21:39:18.266Z,100602.72
2022-08-30T21:42:20.987Z,100593.91
2022-08-30T21:45:23.437Z,100594.44
2022-08-30T21:48:26.088Z,100573.53
2022-08-30T21:51:29.116Z,100611.44
2022-08-30T21:54:31.865Z,100541.38
2022-08-30T21:57:34.285Z,100550.94
2022-08-30T22:00:36.965Z,100606.44
2022-08-30T22:03:42.229Z,100601.47
2022-08-30T22:06:48.144Z,100582.97
2022-08-30T22:09:53.393Z,100556.28
2022-08-30T22:12:55.977Z,100599.72
2022-08-30T22:16:01.321Z,100598.59
2022-08-30T22:19:03.979Z,100601.88
2022-08-30T22:22:06.923Z,100598.03
2022-08-30T22:25:12.351Z,100608.16
2022-08-30T22:28:16.209Z,100600.19
2022-08-30T22:31:21.013Z,100598.81
2022-08-30T22:34:26.849Z,100564.94
2022-08-30T22:37:35.374Z,100533.09
2022-08-30T22:40:47.303Z,100569.97
2022-08-30T22:43:52.241Z,100594.16
2022-08-30T22:46:59.447Z,100594.44
2022-08-30T22:50:01.919Z,100580.16
2022-08-30T22:53:05.109Z,100603.78
2022-08-30T22:56:09.493Z,100600.22
2022-08-30T22:59:12.393Z,100599.50
2022-08-30T23:02:14.818Z,100583.13
2022-08-30T23:05:18.208Z,100553.13
2022-08-30T23:08:20.793Z,100539.38
2022-08-30T23:11:24.835Z,100521.28
2022-08-30T23:14:29.957Z,100586.13
2022-08-30T23:17:32.914Z,100581.72
2022-08-30T23:20:42.868Z,100570.44
2022-08-30T23:24:03.970Z,100570.06
2022-08-30T23:27:24.879Z,100566.66
2022-08-30T23:30:47.327Z,100558.94
2022-08-30T23:34:08.152Z,100579.22
2022-08-30T23:37:31.333Z,100580.28
2022-08-30T23:40:51.981Z,100578.59
2022-08-30T23:44:13.345Z,100578.28
2022-08-30T23:47:34.200Z,100574.91
2022-08-30T23:50:55.597Z,100578.47
2022-08-30T23:54:16.497Z,100566.91
2022-08-30T23:57:37.504Z,100574.50
